HomeShort term forecast

Short term forecast

Graphical weather forecast for the next 48 hours for Montreal:
Short term forecast
This weather forecast is automatically refreshed every 3 hours.

Hourly Experimental Forecast for the next 48 hours

Overall summary: Mostly cloudy throughout the day.

 Date & Hour   Temp   Feel   Baro   Hum   Speed & Bearing   Wind Gust   Precip.%   Precip.   Visibility   Cloud cover   Conditions 
 24/04/2019 - 16:00  6.6°C  4.2°C  1009.1 hPa  83%  12.4 km/h   18.7 km/h  47%  0.07 mm/h  16.1km  100%  Overcast 
 24/04/2019 - 17:00  7.1°C  4.7°C  1009.5 hPa  80%  12.3 km/h   17.8 km/h  44%  0.08 mm/h  16.1km  100%  Overcast 
 24/04/2019 - 18:00  7.9°C  6.1°C  1009.6 hPa  77%  10.0 km/h   15.8 km/h  32%  0.11 mm/h  16.1km  96%  Overcast 
 24/04/2019 - 19:00  8.4°C  7.3°C  1010.1 hPa  75%  7.3 km/h   13.5 km/h  14%  0.02 mm/h  16.1km  89%  Mostly Cloudy 
 24/04/2019 - 20:00  8.0°C  7.1°C  1010.6 hPa  77%  6.2 km/h   11.6 km/h  13%  0.06 mm/h  16.1km  83%  Mostly Cloudy 
 24/04/2019 - 21:00  7.7°C  7.0°C  1011.2 hPa  77%  5.5 km/h   9.5 km/h  10%  0.05 mm/h  16.1km  82%  Mostly Cloudy 
 24/04/2019 - 22:00  7.3°C  7.3°C  1011.8 hPa  78%  4.7 km/h   7.1 km/h  9%  0.05 mm/h  16.1km  80%  Mostly Cloudy 
 24/04/2019 - 23:00  7.1°C  7.1°C  1012.4 hPa  78%  4.7 km/h   6.1 km/h  6%  0.01 mm/h  16.1km  78%  Mostly Cloudy 
 25/04/2019 - 00:00  6.8°C  6.8°C  1012.7 hPa  78%  4.7 km/h   5.5 km/h  7%  0.04 mm/h  16.1km  77%  Mostly Cloudy 
 25/04/2019 - 01:00  6.4°C  6.4°C  1012.8 hPa  78%  4.8 km/h   5.4 km/h  0%  --  16.1km  77%  Mostly Cloudy 
 25/04/2019 - 02:00  6.1°C  6.1°C  1013.1 hPa  79%  4.7 km/h   5.3 km/h  6%  0.04 mm/h  16.1km  77%  Mostly Cloudy 
 25/04/2019 - 03:00  5.7°C  4.8°C  1013.2 hPa  80%  5.1 km/h   5.9 km/h  0%  --  16.1km  75%  Mostly Cloudy 
 25/04/2019 - 04:00  5.2°C  4.3°C  1013.4 hPa  81%  5.2 km/h   5.7 km/h  0%  --  15.8km  71%  Mostly Cloudy 
 25/04/2019 - 05:00  4.9°C  4.0°C  1013.6 hPa  82%  4.9 km/h   5.3 km/h  0%  --  14.6km  68%  Mostly Cloudy 
 25/04/2019 - 06:00  4.3°C  3.3°C  1013.9 hPa  82%  5.0 km/h   5.0 km/h  0%  --  15.6km  65%  Mostly Cloudy 
 25/04/2019 - 07:00  4.7°C  4.7°C  1014.3 hPa  81%  4.7 km/h   4.8 km/h  3%  0.01 mm/h  15.4km  71%  Mostly Cloudy 
 25/04/2019 - 08:00  5.2°C  5.2°C  1014.6 hPa  79%  4.6 km/h   4.7 km/h  2%  0.01 mm/h  15.2km  76%  Mostly Cloudy 
 25/04/2019 - 09:00  6.1°C  6.1°C  1014.7 hPa  76%  4.7 km/h   5.2 km/h  0%  --  15.3km  75%  Mostly Cloudy 
 25/04/2019 - 10:00  7.3°C  6.8°C  1014.7 hPa  72%  4.8 km/h   6.0 km/h  0%  --  15.8km  73%  Mostly Cloudy 
 25/04/2019 - 11:00  8.4°C  7.9°C  1014.5 hPa  69%  5.0 km/h   7.0 km/h  0%  --  16.1km  71%  Mostly Cloudy 
 25/04/2019 - 12:00  9.5°C  9.1°C  1014.1 hPa  65%  5.5 km/h   8.4 km/h  0%  --  16.1km  61%  Mostly Cloudy 
 25/04/2019 - 13:00  10.9°C  10.9°C  1013.5 hPa  60%  6.1 km/h   10.0 km/h  0%  --  16.1km  48%  Partly Cloudy 
 25/04/2019 - 14:00  12.1°C  12.1°C  1012.8 hPa  56%  6.5 km/h   11.1 km/h  2%  0.01 mm/h  16.1km  38%  Partly Cloudy 
 25/04/2019 - 15:00  13.5°C  13.5°C  1012.2 hPa  52%  6.4 km/h   11.6 km/h  2%  0.01 mm/h  16.1km  39%  Partly Cloudy 
 25/04/2019 - 16:00  14.7°C  14.7°C  1011.7 hPa  48%  5.9 km/h   11.6 km/h  0%  --  16.1km  40%  Partly Cloudy 
 25/04/2019 - 17:00  15.5°C  15.5°C  1011.3 hPa  46%  5.6 km/h   11.2 km/h  0%  --  16.1km  40%  Partly Cloudy 
 25/04/2019 - 18:00  15.3°C  15.3°C  1011.3 hPa  48%  5.6 km/h   10.0 km/h  0%  --  16.1km  36%  Partly Cloudy 
 25/04/2019 - 19:00  14.5°C  14.5°C  1011.4 hPa  52%  5.7 km/h   8.4 km/h  0%  --  16.1km  30%  Partly Cloudy 
 25/04/2019 - 20:00  13.4°C  13.4°C  1011.6 hPa  57%  6.1 km/h   7.6 km/h  0%  --  16.1km  25%  Partly Cloudy 
 25/04/2019 - 21:00  12.6°C  12.6°C  1011.7 hPa  59%  6.9 km/h   8.4 km/h  0%  --  16.1km  28%  Partly Cloudy 
 25/04/2019 - 22:00  11.8°C  11.8°C  1011.8 hPa  61%  7.8 km/h   10.1 km/h  0%  --  16.1km  36%  Partly Cloudy 
 25/04/2019 - 23:00  11.1°C  11.1°C  1011.7 hPa  62%  8.5 km/h   11.4 km/h  0%  --  16.1km  43%  Partly Cloudy 
 26/04/2019 - 00:00  10.5°C  10.5°C  1011.3 hPa  64%  8.4 km/h   11.6 km/h  0%  --  16.1km  47%  Partly Cloudy 
 26/04/2019 - 01:00  9.9°C  8.9°C  1010.7 hPa  66%  8.1 km/h   11.4 km/h  0%  --  16.1km  52%  Partly Cloudy 
 26/04/2019 - 02:00  9.2°C  8.0°C  1010.1 hPa  68%  8.0 km/h   11.6 km/h  0%  --  16.1km  58%  Partly Cloudy 
 26/04/2019 - 03:00  8.2°C  6.8°C  1009.5 hPa  71%  8.6 km/h   12.1 km/h  1%  0.01 mm/h  16.1km  64%  Mostly Cloudy 
 26/04/2019 - 04:00  7.2°C  5.4°C  1008.8 hPa  73%  9.5 km/h   13.0 km/h  1%  0.01 mm/h  16.1km  68%  Mostly Cloudy 
 26/04/2019 - 05:00  6.7°C  4.6°C  1008.2 hPa  75%  10.4 km/h   14.2 km/h  1%  0.01 mm/h  16.1km  74%  Mostly Cloudy 
 26/04/2019 - 06:00  6.9°C  4.7°C  1007.6 hPa  75%  11.4 km/h   15.4 km/h  2%  0.03 mm/h  16.1km  80%  Mostly Cloudy 
 26/04/2019 - 07:00  7.5°C  5.3°C  1006.9 hPa  75%  12.3 km/h   17.0 km/h  5%  0.12 mm/h  16.1km  88%  Mostly Cloudy 
 26/04/2019 - 08:00  8.2°C  6.0°C  1006.2 hPa  75%  13.3 km/h   19.7 km/h  23%  0.28 mm/h  16.1km  94%  Overcast 
 26/04/2019 - 09:00  9.0°C  6.8°C  1005.4 hPa  77%  14.3 km/h   24.2 km/h  57%  0.54 mm/h  13.1km  95%  Overcast 
 26/04/2019 - 10:00  9.9°C  7.8°C  1004.5 hPa  81%  15.3 km/h   29.9 km/h  72%  1.07 mm/h  8.1km  94%  Light Rain 
 26/04/2019 - 11:00  10.4°C  10.4°C  1003.5 hPa  85%  16.7 km/h   35.4 km/h  80%  1.60 mm/h  5.0km  95%  Rain 
 26/04/2019 - 12:00  10.8°C  10.8°C  1002.3 hPa  86%  18.8 km/h   40.7 km/h  83%  1.89 mm/h  4.7km  95%  Rain 
 26/04/2019 - 13:00  10.9°C  10.9°C  1001.1 hPa  88%  21.4 km/h   45.7 km/h  87%  2.48 mm/h  6.0km  96%  Rain 
 26/04/2019 - 14:00  10.9°C  10.9°C  999.8 hPa  89%  23.5 km/h   49.7 km/h  88%  3.18 mm/h  7.9km  97%  Rain 
 26/04/2019 - 15:00  10.8°C  10.8°C  998.4 hPa  89%  24.7 km/h   52.5 km/h  88%  3.21 mm/h  10.3km  98%  Rain 
Test

 

Past weather and reports

Past weatherFind in this section the past weather conditions, weather archive, graphics, reports and statistics.

Current conditions

Current weather condition for MontrealAll you need to know about the current weather conditions for Montreal. Weather data is updated every 10 minutes.

Weather forecast

Current Montreal weatherSince 2004, celinium.com website has provided accurate weather forecast for Montreal's island.